sensor_id;sensor_type;location;lat;lon;timestamp;P1;durP1;ratioP1;P2;durP2;ratioP2
38113;SDS011;23926;53.222;6.354;2023-07-22T00:00:24;2.88;;;2.60;;
38113;SDS011;23926;53.222;6.354;2023-07-22T00:02:51;4.95;;;3.38;;
38113;SDS011;23926;53.222;6.354;2023-07-22T00:05:16;6.10;;;3.10;;
38113;SDS011;23926;53.222;6.354;2023-07-22T00:07:47;2.55;;;2.20;;
38113;SDS011;23926;53.222;6.354;2023-07-22T00:10:12;2.92;;;2.63;;
38113;SDS011;23926;53.222;6.354;2023-07-22T00:12:38;4.78;;;2.80;;
38113;SDS011;23926;53.222;6.354;2023-07-22T00:15:03;3.47;;;2.78;;
38113;SDS011;23926;53.222;6.354;2023-07-22T00:17:29;4.22;;;2.65;;
38113;SDS011;23926;53.222;6.354;2023-07-22T00:19:54;3.60;;;2.78;;
38113;SDS011;23926;53.222;6.354;2023-07-22T00:22:20;3.08;;;2.22;;
38113;SDS011;23926;53.222;6.354;2023-07-22T00:24:46;3.35;;;2.45;;
38113;SDS011;23926;53.222;6.354;2023-07-22T00:27:12;3.28;;;2.78;;
38113;SDS011;23926;53.222;6.354;2023-07-22T00:29:37;4.32;;;2.58;;
38113;SDS011;23926;53.222;6.354;2023-07-22T00:32:04;4.28;;;3.22;;
38113;SDS011;23926;53.222;6.354;2023-07-22T00:34:33;4.82;;;3.42;;
38113;SDS011;23926;53.222;6.354;2023-07-22T00:36:59;5.40;;;3.88;;
38113;SDS011;23926;53.222;6.354;2023-07-22T00:39:25;4.35;;;3.95;;
38113;SDS011;23926;53.222;6.354;2023-07-22T00:41:50;4.55;;;3.88;;
38113;SDS011;23926;53.222;6.354;2023-07-22T00:44:16;3.88;;;3.03;;
38113;SDS011;23926;53.222;6.354;2023-07-22T00:46:41;5.97;;;4.32;;
38113;SDS011;23926;53.222;6.354;2023-07-22T00:49:06;4.53;;;4.13;;
38113;SDS011;23926;53.222;6.354;2023-07-22T00:51:33;4.93;;;4.43;;
38113;SDS011;23926;53.222;6.354;2023-07-22T00:53:58;4.78;;;4.22;;
38113;SDS011;23926;53.222;6.354;2023-07-22T00:56:24;5.97;;;4.38;;
38113;SDS011;23926;53.222;6.354;2023-07-22T00:58:49;6.03;;;4.38;;
38113;SDS011;23926;53.222;6.354;2023-07-22T01:01:15;5.60;;;4.75;;
38113;SDS011;23926;53.222;6.354;2023-07-22T01:03:40;5.57;;;4.63;;
38113;SDS011;23926;53.222;6.354;2023-07-22T01:06:06;3.83;;;3.42;;
38113;SDS011;23926;53.222;6.354;2023-07-22T01:08:32;5.65;;;4.07;;
38113;SDS011;23926;53.222;6.354;2023-07-22T01:10:58;8.23;;;3.92;;
38113;SDS011;23926;53.222;6.354;2023-07-22T01:13:24;6.18;;;4.45;;
38113;SDS011;23926;53.222;6.354;2023-07-22T01:15:49;6.85;;;3.85;;
38113;SDS011;23926;53.222;6.354;2023-07-22T01:18:15;5.22;;;3.85;;
38113;SDS011;23926;53.222;6.354;2023-07-22T01:20:40;7.63;;;3.83;;
38113;SDS011;23926;53.222;6.354;2023-07-22T01:23:07;7.45;;;4.05;;
38113;SDS011;23926;53.222;6.354;2023-07-22T01:25:33;5.28;;;3.53;;
38113;SDS011;23926;53.222;6.354;2023-07-22T01:27:58;5.15;;;4.00;;
38113;SDS011;23926;53.222;6.354;2023-07-22T01:30:24;7.18;;;4.18;;
38113;SDS011;23926;53.222;6.354;2023-07-22T01:32:52;5.65;;;4.25;;
38113;SDS011;23926;53.222;6.354;2023-07-22T01:35:17;5.43;;;3.55;;
38113;SDS011;23926;53.222;6.354;2023-07-22T01:37:43;5.63;;;3.72;;
38113;SDS011;23926;53.222;6.354;2023-07-22T01:40:09;5.97;;;4.50;;
38113;SDS011;23926;53.222;6.354;2023-07-22T01:42:41;4.25;;;2.67;;
38113;SDS011;23926;53.222;6.354;2023-07-22T01:45:08;5.72;;;3.60;;
38113;SDS011;23926;53.222;6.354;2023-07-22T01:47:34;4.93;;;4.25;;
38113;SDS011;23926;53.222;6.354;2023-07-22T01:50:01;6.93;;;3.90;;
38113;SDS011;23926;53.222;6.354;2023-07-22T01:52:27;5.00;;;3.97;;
38113;SDS011;23926;53.222;6.354;2023-07-22T01:54:52;3.35;;;3.05;;
38113;SDS011;23926;53.222;6.354;2023-07-22T01:57:18;6.15;;;3.90;;
38113;SDS011;23926;53.222;6.354;2023-07-22T01:59:43;4.05;;;3.60;;
38113;SDS011;23926;53.222;6.354;2023-07-22T02:02:09;4.93;;;4.43;;
38113;SDS011;23926;53.222;6.354;2023-07-22T02:04:34;5.38;;;4.75;;
38113;SDS011;23926;53.222;6.354;2023-07-22T02:07:00;8.30;;;4.72;;
38113;SDS011;23926;53.222;6.354;2023-07-22T02:09:25;4.22;;;3.63;;
38113;SDS011;23926;53.222;6.354;2023-07-22T02:11:50;4.78;;;4.00;;
38113;SDS011;23926;53.222;6.354;2023-07-22T02:14:16;5.10;;;3.85;;
38113;SDS011;23926;53.222;6.354;2023-07-22T02:16:41;7.85;;;4.30;;
38113;SDS011;23926;53.222;6.354;2023-07-22T02:19:07;5.68;;;4.07;;
38113;SDS011;23926;53.222;6.354;2023-07-22T02:21:32;11.07;;;5.60;;
38113;SDS011;23926;53.222;6.354;2023-07-22T02:23:57;6.00;;;4.45;;
38113;SDS011;23926;53.222;6.354;2023-07-22T02:26:23;5.35;;;4.03;;
38113;SDS011;23926;53.222;6.354;2023-07-22T02:28:48;5.57;;;4.32;;
38113;SDS011;23926;53.222;6.354;2023-07-22T02:31:14;4.25;;;3.72;;
38113;SDS011;23926;53.222;6.354;2023-07-22T02:33:39;4.60;;;3.85;;
38113;SDS011;23926;53.222;6.354;2023-07-22T02:36:05;8.07;;;4.82;;
38113;SDS011;23926;53.222;6.354;2023-07-22T02:38:31;6.07;;;4.53;;
38113;SDS011;23926;53.222;6.354;2023-07-22T02:41:03;5.60;;;4.20;;
38113;SDS011;23926;53.222;6.354;2023-07-22T02:43:31;4.10;;;3.72;;
38113;SDS011;23926;53.222;6.354;2023-07-22T02:45:57;4.18;;;3.45;;
38113;SDS011;23926;53.222;6.354;2023-07-22T02:48:22;4.53;;;3.58;;
38113;SDS011;23926;53.222;6.354;2023-07-22T02:50:48;6.95;;;4.05;;
38113;SDS011;23926;53.222;6.354;2023-07-22T02:53:13;4.43;;;3.30;;
38113;SDS011;23926;53.222;6.354;2023-07-22T02:55:39;5.65;;;4.53;;
38113;SDS011;23926;53.222;6.354;2023-07-22T02:58:04;4.40;;;3.65;;
38113;SDS011;23926;53.222;6.354;2023-07-22T03:00:30;4.18;;;3.45;;
38113;SDS011;23926;53.222;6.354;2023-07-22T03:02:56;5.55;;;3.97;;
38113;SDS011;23926;53.222;6.354;2023-07-22T03:05:26;5.53;;;4.35;;
38113;SDS011;23926;53.222;6.354;2023-07-22T03:07:53;5.10;;;4.60;;
38113;SDS011;23926;53.222;6.354;2023-07-22T03:10:19;3.38;;;3.08;;
38113;SDS011;23926;53.222;6.354;2023-07-22T03:12:44;4.00;;;3.60;;
38113;SDS011;23926;53.222;6.354;2023-07-22T03:15:10;4.10;;;3.65;;
38113;SDS011;23926;53.222;6.354;2023-07-22T03:17:37;6.95;;;3.78;;
38113;SDS011;23926;53.222;6.354;2023-07-22T03:20:04;3.83;;;3.28;;
38113;SDS011;23926;53.222;6.354;2023-07-22T03:22:43;3.60;;;3.22;;
38113;SDS011;23926;53.222;6.354;2023-07-22T03:25:12;9.35;;;4.25;;
38113;SDS011;23926;53.222;6.354;2023-07-22T03:27:39;4.60;;;3.85;;
38113;SDS011;23926;53.222;6.354;2023-07-22T03:30:05;5.20;;;4.65;;
38113;SDS011;23926;53.222;6.354;2023-07-22T03:32:32;4.05;;;3.40;;
38113;SDS011;23926;53.222;6.354;2023-07-22T03:34:58;5.43;;;4.03;;
38113;SDS011;23926;53.222;6.354;2023-07-22T03:37:24;9.15;;;4.07;;
38113;SDS011;23926;53.222;6.354;2023-07-22T03:39:49;4.78;;;3.40;;
38113;SDS011;23926;53.222;6.354;2023-07-22T03:42:15;4.82;;;3.75;;
38113;SDS011;23926;53.222;6.354;2023-07-22T03:44:41;4.00;;;3.67;;
38113;SDS011;23926;53.222;6.354;2023-07-22T03:47:06;5.47;;;3.95;;
38113;SDS011;23926;53.222;6.354;2023-07-22T03:49:32;5.75;;;3.40;;
38113;SDS011;23926;53.222;6.354;2023-07-22T03:51:58;3.60;;;3.10;;
38113;SDS011;23926;53.222;6.354;2023-07-22T03:54:23;4.63;;;3.60;;
38113;SDS011;23926;53.222;6.354;2023-07-22T03:56:48;4.00;;;3.28;;
38113;SDS011;23926;53.222;6.354;2023-07-22T03:59:14;4.03;;;3.42;;
38113;SDS011;23926;53.222;6.354;2023-07-22T04:01:39;4.20;;;3.22;;
38113;SDS011;23926;53.222;6.354;2023-07-22T04:04:05;4.45;;;3.17;;
38113;SDS011;23926;53.222;6.354;2023-07-22T04:06:30;4.28;;;3.83;;
38113;SDS011;23926;53.222;6.354;2023-07-22T04:08:56;8.02;;;3.50;;
38113;SDS011;23926;53.222;6.354;2023-07-22T04:11:21;4.80;;;3.60;;
38113;SDS011;23926;53.222;6.354;2023-07-22T04:13:47;6.30;;;4.07;;
38113;SDS011;23926;53.222;6.354;2023-07-22T04:16:13;4.82;;;3.47;;
38113;SDS011;23926;53.222;6.354;2023-07-22T04:18:39;3.08;;;2.88;;
38113;SDS011;23926;53.222;6.354;2023-07-22T04:21:04;4.40;;;2.97;;
38113;SDS011;23926;53.222;6.354;2023-07-22T04:23:30;3.22;;;2.88;;
38113;SDS011;23926;53.222;6.354;2023-07-22T04:25:58;5.00;;;3.30;;
38113;SDS011;23926;53.222;6.354;2023-07-22T04:28:23;3.38;;;3.08;;
38113;SDS011;23926;53.222;6.354;2023-07-22T04:30:55;4.32;;;3.58;;
38113;SDS011;23926;53.222;6.354;2023-07-22T04:33:23;4.78;;;3.72;;
38113;SDS011;23926;53.222;6.354;2023-07-22T04:35:49;4.45;;;3.22;;
38113;SDS011;23926;53.222;6.354;2023-07-22T04:38:14;3.75;;;3.33;;
38113;SDS011;23926;53.222;6.354;2023-07-22T04:40:43;3.63;;;3.33;;
38113;SDS011;23926;53.222;6.354;2023-07-22T04:43:09;4.22;;;3.13;;
38113;SDS011;23926;53.222;6.354;2023-07-22T04:45:34;5.47;;;4.72;;
38113;SDS011;23926;53.222;6.354;2023-07-22T04:47:59;4.30;;;3.92;;
38113;SDS011;23926;53.222;6.354;2023-07-22T04:50:26;4.95;;;4.10;;
38113;SDS011;23926;53.222;6.354;2023-07-22T04:52:51;5.05;;;3.28;;
38113;SDS011;23926;53.222;6.354;2023-07-22T04:55:17;12.23;;;4.38;;
38113;SDS011;23926;53.222;6.354;2023-07-22T04:57:42;9.32;;;5.05;;
38113;SDS011;23926;53.222;6.354;2023-07-22T05:00:10;4.57;;;4.18;;
38113;SDS011;23926;53.222;6.354;2023-07-22T05:02:39;6.05;;;4.82;;
38113;SDS011;23926;53.222;6.354;2023-07-22T05:05:05;7.95;;;4.95;;
38113;SDS011;23926;53.222;6.354;2023-07-22T05:07:31;4.95;;;4.45;;
38113;SDS011;23926;53.222;6.354;2023-07-22T05:09:57;6.90;;;4.97;;
38113;SDS011;23926;53.222;6.354;2023-07-22T05:12:22;5.40;;;4.90;;
38113;SDS011;23926;53.222;6.354;2023-07-22T05:14:48;9.98;;;5.82;;
38113;SDS011;23926;53.222;6.354;2023-07-22T05:17:14;5.32;;;4.80;;
38113;SDS011;23926;53.222;6.354;2023-07-22T05:19:39;5.20;;;4.57;;
38113;SDS011;23926;53.222;6.354;2023-07-22T05:22:05;4.68;;;4.28;;
38113;SDS011;23926;53.222;6.354;2023-07-22T05:24:30;8.23;;;4.28;;
38113;SDS011;23926;53.222;6.354;2023-07-22T05:26:56;6.18;;;5.40;;
38113;SDS011;23926;53.222;6.354;2023-07-22T05:29:21;11.75;;;5.43;;
38113;SDS011;23926;53.222;6.354;2023-07-22T05:31:47;7.95;;;6.47;;
38113;SDS011;23926;53.222;6.354;2023-07-22T05:34:13;7.55;;;5.85;;
38113;SDS011;23926;53.222;6.354;2023-07-22T05:36:39;7.40;;;5.75;;
38113;SDS011;23926;53.222;6.354;2023-07-22T05:39:05;6.45;;;5.18;;
38113;SDS011;23926;53.222;6.354;2023-07-22T05:41:32;11.35;;;6.55;;
38113;SDS011;23926;53.222;6.354;2023-07-22T05:43:58;9.57;;;5.93;;
38113;SDS011;23926;53.222;6.354;2023-07-22T05:46:23;5.32;;;4.82;;
38113;SDS011;23926;53.222;6.354;2023-07-22T05:48:49;6.43;;;5.65;;
38113;SDS011;23926;53.222;6.354;2023-07-22T05:51:15;6.22;;;4.93;;
38113;SDS011;23926;53.222;6.354;2023-07-22T05:53:40;6.82;;;4.72;;
38113;SDS011;23926;53.222;6.354;2023-07-22T05:56:06;7.45;;;5.85;;
38113;SDS011;23926;53.222;6.354;2023-07-22T05:58:31;6.00;;;5.45;;
38113;SDS011;23926;53.222;6.354;2023-07-22T06:00:56;7.13;;;6.07;;
38113;SDS011;23926;53.222;6.354;2023-07-22T06:03:22;7.85;;;5.38;;
38113;SDS011;23926;53.222;6.354;2023-07-22T06:05:47;7.93;;;6.45;;
38113;SDS011;23926;53.222;6.354;2023-07-22T06:08:13;6.70;;;5.97;;
38113;SDS011;23926;53.222;6.354;2023-07-22T06:10:42;7.50;;;6.43;;
38113;SDS011;23926;53.222;6.354;2023-07-22T06:13:08;7.68;;;6.88;;
38113;SDS011;23926;53.222;6.354;2023-07-22T06:15:33;7.32;;;5.90;;
38113;SDS011;23926;53.222;6.354;2023-07-22T06:17:59;8.02;;;6.15;;
38113;SDS011;23926;53.222;6.354;2023-07-22T06:20:26;6.50;;;5.18;;
38113;SDS011;23926;53.222;6.354;2023-07-22T06:22:51;12.35;;;6.72;;
38113;SDS011;23926;53.222;6.354;2023-07-22T06:25:17;6.78;;;5.68;;
38113;SDS011;23926;53.222;6.354;2023-07-22T06:27:42;10.52;;;6.63;;
38113;SDS011;23926;53.222;6.354;2023-07-22T06:30:08;8.88;;;6.40;;
38113;SDS011;23926;53.222;6.354;2023-07-22T06:32:36;10.77;;;7.55;;
38113;SDS011;23926;53.222;6.354;2023-07-22T06:35:02;12.90;;;6.38;;
38113;SDS011;23926;53.222;6.354;2023-07-22T06:37:28;8.57;;;6.75;;
38113;SDS011;23926;53.222;6.354;2023-07-22T06:39:54;9.63;;;6.18;;
38113;SDS011;23926;53.222;6.354;2023-07-22T06:42:20;8.98;;;6.40;;
38113;SDS011;23926;53.222;6.354;2023-07-22T06:44:45;10.18;;;6.75;;
38113;SDS011;23926;53.222;6.354;2023-07-22T06:47:11;10.15;;;6.10;;
38113;SDS011;23926;53.222;6.354;2023-07-22T06:49:36;7.63;;;6.82;;
38113;SDS011;23926;53.222;6.354;2023-07-22T06:52:02;11.88;;;7.88;;
38113;SDS011;23926;53.222;6.354;2023-07-22T06:54:27;9.07;;;6.45;;
38113;SDS011;23926;53.222;6.354;2023-07-22T06:56:53;8.23;;;7.18;;
38113;SDS011;23926;53.222;6.354;2023-07-22T06:59:18;11.60;;;7.93;;
38113;SDS011;23926;53.222;6.354;2023-07-22T07:01:44;10.93;;;7.07;;
38113;SDS011;23926;53.222;6.354;2023-07-22T07:04:10;10.05;;;7.20;;
38113;SDS011;23926;53.222;6.354;2023-07-22T07:06:35;6.55;;;5.40;;
38113;SDS011;23926;53.222;6.354;2023-07-22T07:09:03;14.05;;;8.80;;
38113;SDS011;23926;53.222;6.354;2023-07-22T07:11:30;6.60;;;5.55;;
38113;SDS011;23926;53.222;6.354;2023-07-22T07:13:56;14.75;;;7.22;;
38113;SDS011;23926;53.222;6.354;2023-07-22T07:16:24;8.15;;;6.88;;
38113;SDS011;23926;53.222;6.354;2023-07-22T07:18:50;19.35;;;6.93;;
38113;SDS011;23926;53.222;6.354;2023-07-22T07:21:16;7.88;;;7.07;;
38113;SDS011;23926;53.222;6.354;2023-07-22T07:23:42;6.75;;;6.05;;
38113;SDS011;23926;53.222;6.354;2023-07-22T07:26:07;12.02;;;8.23;;
38113;SDS011;23926;53.222;6.354;2023-07-22T07:28:33;11.38;;;7.57;;
38113;SDS011;23926;53.222;6.354;2023-07-22T07:30:58;10.15;;;7.13;;
38113;SDS011;23926;53.222;6.354;2023-07-22T07:33:24;11.20;;;6.88;;
38113;SDS011;23926;53.222;6.354;2023-07-22T07:35:50;8.98;;;7.97;;
38113;SDS011;23926;53.222;6.354;2023-07-22T07:38:15;8.10;;;7.18;;
38113;SDS011;23926;53.222;6.354;2023-07-22T07:40:40;17.05;;;7.55;;
38113;SDS011;23926;53.222;6.354;2023-07-22T07:43:06;8.60;;;7.53;;
38113;SDS011;23926;53.222;6.354;2023-07-22T07:45:31;11.35;;;8.98;;
38113;SDS011;23926;53.222;6.354;2023-07-22T07:47:57;16.08;;;8.13;;
38113;SDS011;23926;53.222;6.354;2023-07-22T07:50:22;9.57;;;7.60;;
38113;SDS011;23926;53.222;6.354;2023-07-22T07:52:47;9.52;;;7.05;;
38113;SDS011;23926;53.222;6.354;2023-07-22T07:55:13;8.80;;;7.03;;
38113;SDS011;23926;53.222;6.354;2023-07-22T07:57:38;8.40;;;7.28;;
38113;SDS011;23926;53.222;6.354;2023-07-22T08:00:04;7.18;;;6.47;;
38113;SDS011;23926;53.222;6.354;2023-07-22T08:02:30;10.45;;;6.72;;
38113;SDS011;23926;53.222;6.354;2023-07-22T08:04:55;9.20;;;6.60;;
38113;SDS011;23926;53.222;6.354;2023-07-22T08:07:21;7.18;;;6.47;;
38113;SDS011;23926;53.222;6.354;2023-07-22T08:09:47;12.48;;;7.22;;
38113;SDS011;23926;53.222;6.354;2023-07-22T08:12:16;8.85;;;7.25;;
38113;SDS011;23926;53.222;6.354;2023-07-22T08:14:41;6.68;;;5.57;;
38113;SDS011;23926;53.222;6.354;2023-07-22T08:17:07;5.70;;;5.20;;
38113;SDS011;23926;53.222;6.354;2023-07-22T08:19:32;9.73;;;6.55;;
38113;SDS011;23926;53.222;6.354;2023-07-22T08:21:58;8.93;;;7.82;;
38113;SDS011;23926;53.222;6.354;2023-07-22T08:24:23;5.45;;;4.95;;
38113;SDS011;23926;53.222;6.354;2023-07-22T08:26:48;6.65;;;5.95;;
38113;SDS011;23926;53.222;6.354;2023-07-22T08:29:14;12.65;;;6.13;;
38113;SDS011;23926;53.222;6.354;2023-07-22T08:31:39;7.10;;;6.50;;
38113;SDS011;23926;53.222;6.354;2023-07-22T08:34:05;10.70;;;6.72;;
38113;SDS011;23926;53.222;6.354;2023-07-22T08:36:31;11.27;;;6.50;;
38113;SDS011;23926;53.222;6.354;2023-07-22T08:38:56;7.35;;;6.28;;
38113;SDS011;23926;53.222;6.354;2023-07-22T08:41:22;7.15;;;5.88;;
38113;SDS011;23926;53.222;6.354;2023-07-22T08:43:50;7.00;;;5.50;;
38113;SDS011;23926;53.222;6.354;2023-07-22T08:46:16;6.75;;;6.07;;
38113;SDS011;23926;53.222;6.354;2023-07-22T08:48:49;7.35;;;6.28;;
38113;SDS011;23926;53.222;6.354;2023-07-22T08:51:17;8.13;;;6.30;;
38113;SDS011;23926;53.222;6.354;2023-07-22T08:53:46;7.18;;;5.53;;
38113;SDS011;23926;53.222;6.354;2023-07-22T08:56:12;6.80;;;6.13;;
38113;SDS011;23926;53.222;6.354;2023-07-22T08:58:38;7.60;;;6.90;;
38113;SDS011;23926;53.222;6.354;2023-07-22T09:01:04;8.05;;;7.05;;
38113;SDS011;23926;53.222;6.354;2023-07-22T09:03:30;6.32;;;5.68;;
38113;SDS011;23926;53.222;6.354;2023-07-22T09:05:57;8.10;;;6.13;;
38113;SDS011;23926;53.222;6.354;2023-07-22T09:08:23;7.07;;;5.40;;
38113;SDS011;23926;53.222;6.354;2023-07-22T09:10:49;5.95;;;5.07;;
38113;SDS011;23926;53.222;6.354;2023-07-22T09:13:14;9.85;;;4.72;;
38113;SDS011;23926;53.222;6.354;2023-07-22T09:15:40;6.47;;;4.93;;
38113;SDS011;23926;53.222;6.354;2023-07-22T09:18:07;7.93;;;4.65;;
38113;SDS011;23926;53.222;6.354;2023-07-22T09:20:33;5.45;;;4.95;;
38113;SDS011;23926;53.222;6.354;2023-07-22T09:22:59;9.02;;;5.20;;
38113;SDS011;23926;53.222;6.354;2023-07-22T09:25:26;7.35;;;5.90;;
38113;SDS011;23926;53.222;6.354;2023-07-22T09:27:53;5.45;;;4.95;;
38113;SDS011;23926;53.222;6.354;2023-07-22T09:30:30;12.65;;;5.78;;
38113;SDS011;23926;53.222;6.354;2023-07-22T09:33:00;5.72;;;5.22;;
38113;SDS011;23926;53.222;6.354;2023-07-22T09:35:31;7.22;;;5.38;;
38113;SDS011;23926;53.222;6.354;2023-07-22T09:38:10;6.97;;;5.20;;
38113;SDS011;23926;53.222;6.354;2023-07-22T09:40:36;5.40;;;4.60;;
38113;SDS011;23926;53.222;6.354;2023-07-22T09:43:05;4.97;;;4.57;;
38113;SDS011;23926;53.222;6.354;2023-07-22T09:45:34;8.40;;;5.82;;
38113;SDS011;23926;53.222;6.354;2023-07-22T09:48:00;5.10;;;4.60;;
38113;SDS011;23926;53.222;6.354;2023-07-22T09:50:25;9.88;;;5.32;;
38113;SDS011;23926;53.222;6.354;2023-07-22T09:52:55;6.95;;;6.13;;
38113;SDS011;23926;53.222;6.354;2023-07-22T09:55:30;8.75;;;6.55;;
38113;SDS011;23926;53.222;6.354;2023-07-22T09:58:03;7.90;;;6.32;;
38113;SDS011;23926;53.222;6.354;2023-07-22T10:00:35;14.90;;;7.13;;
38113;SDS011;23926;53.222;6.354;2023-07-22T10:03:01;6.10;;;5.40;;
38113;SDS011;23926;53.222;6.354;2023-07-22T10:05:30;11.70;;;6.30;;
38113;SDS011;23926;53.222;6.354;2023-07-22T10:07:59;6.97;;;5.55;;
38113;SDS011;23926;53.222;6.354;2023-07-22T10:10:34;7.05;;;5.57;;
38113;SDS011;23926;53.222;6.354;2023-07-22T10:13:02;6.95;;;6.25;;
38113;SDS011;23926;53.222;6.354;2023-07-22T10:15:28;7.75;;;6.80;;
38113;SDS011;23926;53.222;6.354;2023-07-22T10:17:56;5.85;;;5.32;;
38113;SDS011;23926;53.222;6.354;2023-07-22T10:20:22;8.13;;;5.57;;
38113;SDS011;23926;53.222;6.354;2023-07-22T10:22:49;7.53;;;6.40;;
38113;SDS011;23926;53.222;6.354;2023-07-22T10:25:16;7.57;;;6.05;;
38113;SDS011;23926;53.222;6.354;2023-07-22T10:27:43;9.23;;;7.45;;
38113;SDS011;23926;53.222;6.354;2023-07-22T10:30:10;6.30;;;5.70;;
38113;SDS011;23926;53.222;6.354;2023-07-22T10:32:40;7.82;;;7.07;;
38113;SDS011;23926;53.222;6.354;2023-07-22T10:35:17;10.43;;;5.05;;
38113;SDS011;23926;53.222;6.354;2023-07-22T10:37:48;6.95;;;5.55;;
38113;SDS011;23926;53.222;6.354;2023-07-22T10:40:18;7.88;;;5.38;;
38113;SDS011;23926;53.222;6.354;2023-07-22T10:45:32;6.88;;;5.30;;
38113;SDS011;23926;53.222;6.354;2023-07-22T10:50:38;10.68;;;5.25;;
38113;SDS011;23926;53.222;6.354;2023-07-22T11:09:31;3.58;;;3.28;;
38113;SDS011;23926;53.222;6.354;2023-07-22T11:12:00;4.28;;;3.65;;
38113;SDS011;23926;53.222;6.354;2023-07-22T11:14:43;3.55;;;3.25;;
38113;SDS011;23926;53.222;6.354;2023-07-22T11:17:13;3.63;;;3.33;;
38113;SDS011;23926;53.222;6.354;2023-07-22T11:19:39;4.38;;;3.95;;
38113;SDS011;23926;53.222;6.354;2023-07-22T11:22:05;6.55;;;3.63;;
38113;SDS011;23926;53.222;6.354;2023-07-22T11:24:32;3.28;;;2.97;;
38113;SDS011;23926;53.222;6.354;2023-07-22T11:27:03;3.88;;;3.33;;
38113;SDS011;23926;53.222;6.354;2023-07-22T11:29:30;8.10;;;4.35;;
38113;SDS011;23926;53.222;6.354;2023-07-22T11:31:55;5.50;;;4.90;;
38113;SDS011;23926;53.222;6.354;2023-07-22T11:34:22;4.07;;;3.78;;
38113;SDS011;23926;53.222;6.354;2023-07-22T11:36:49;5.00;;;4.25;;
38113;SDS011;23926;53.222;6.354;2023-07-22T11:39:16;4.07;;;3.67;;
38113;SDS011;23926;53.222;6.354;2023-07-22T11:41:45;4.22;;;3.83;;
38113;SDS011;23926;53.222;6.354;2023-07-22T11:44:13;4.65;;;4.25;;
38113;SDS011;23926;53.222;6.354;2023-07-22T11:46:56;5.22;;;4.25;;
38113;SDS011;23926;53.222;6.354;2023-07-22T11:49:35;4.53;;;3.92;;
38113;SDS011;23926;53.222;6.354;2023-07-22T11:52:02;6.15;;;4.63;;
38113;SDS011;23926;53.222;6.354;2023-07-22T11:54:49;3.97;;;3.65;;
38113;SDS011;23926;53.222;6.354;2023-07-22T11:57:15;4.85;;;4.45;;
38113;SDS011;23926;53.222;6.354;2023-07-22T11:59:44;9.10;;;4.65;;
38113;SDS011;23926;53.222;6.354;2023-07-22T12:02:18;9.88;;;5.90;;
38113;SDS011;23926;53.222;6.354;2023-07-22T12:05:04;5.45;;;4.63;;
38113;SDS011;23926;53.222;6.354;2023-07-22T12:07:31;7.43;;;5.65;;
38113;SDS011;23926;53.222;6.354;2023-07-22T12:09:58;5.10;;;4.60;;
38113;SDS011;23926;53.222;6.354;2023-07-22T12:12:31;8.88;;;5.13;;
38113;SDS011;23926;53.222;6.354;2023-07-22T12:17:29;5.07;;;4.68;;
38113;SDS011;23926;53.222;6.354;2023-07-22T12:19:54;5.85;;;5.22;;
38113;SDS011;23926;53.222;6.354;2023-07-22T12:22:20;6.20;;;5.60;;
38113;SDS011;23926;53.222;6.354;2023-07-22T12:24:48;6.20;;;5.65;;
38113;SDS011;23926;53.222;6.354;2023-07-22T12:27:14;6.22;;;5.57;;
38113;SDS011;23926;53.222;6.354;2023-07-22T12:29:40;7.25;;;5.35;;
38113;SDS011;23926;53.222;6.354;2023-07-22T12:32:05;7.32;;;5.03;;
38113;SDS011;23926;53.222;6.354;2023-07-22T12:34:31;6.25;;;4.97;;
38113;SDS011;23926;53.222;6.354;2023-07-22T12:36:56;6.82;;;6.15;;
38113;SDS011;23926;53.222;6.354;2023-07-22T12:39:22;7.07;;;6.45;;
38113;SDS011;23926;53.222;6.354;2023-07-22T12:41:47;5.65;;;5.15;;
38113;SDS011;23926;53.222;6.354;2023-07-22T12:44:12;6.13;;;5.60;;
38113;SDS011;23926;53.222;6.354;2023-07-22T12:46:38;7.20;;;5.97;;
38113;SDS011;23926;53.222;6.354;2023-07-22T12:49:03;8.13;;;6.18;;
38113;SDS011;23926;53.222;6.354;2023-07-22T12:51:30;8.35;;;7.55;;
38113;SDS011;23926;53.222;6.354;2023-07-22T12:53:56;6.15;;;5.55;;
38113;SDS011;23926;53.222;6.354;2023-07-22T12:56:21;5.85;;;4.70;;
38113;SDS011;23926;53.222;6.354;2023-07-22T12:58:47;5.10;;;4.68;;
38113;SDS011;23926;53.222;6.354;2023-07-22T13:01:12;7.05;;;6.32;;
38113;SDS011;23926;53.222;6.354;2023-07-22T13:03:38;8.60;;;5.18;;
38113;SDS011;23926;53.222;6.354;2023-07-22T13:06:03;5.45;;;4.95;;
38113;SDS011;23926;53.222;6.354;2023-07-22T13:08:29;6.55;;;5.90;;
38113;SDS011;23926;53.222;6.354;2023-07-22T13:10:55;5.88;;;5.38;;
38113;SDS011;23926;53.222;6.354;2023-07-22T13:13:20;4.38;;;4.07;;
38113;SDS011;23926;53.222;6.354;2023-07-22T13:15:46;5.68;;;4.97;;
38113;SDS011;23926;53.222;6.354;2023-07-22T13:18:11;5.78;;;5.28;;
38113;SDS011;23926;53.222;6.354;2023-07-22T13:20:38;9.98;;;6.82;;
38113;SDS011;23926;53.222;6.354;2023-07-22T13:23:04;6.22;;;5.63;;
38113;SDS011;23926;53.222;6.354;2023-07-22T13:25:29;7.53;;;6.82;;
38113;SDS011;23926;53.222;6.354;2023-07-22T13:27:55;4.60;;;4.20;;
38113;SDS011;23926;53.222;6.354;2023-07-22T13:30:21;7.32;;;5.57;;
38113;SDS011;23926;53.222;6.354;2023-07-22T13:32:47;6.03;;;5.40;;
38113;SDS011;23926;53.222;6.354;2023-07-22T13:35:12;9.02;;;5.68;;
38113;SDS011;23926;53.222;6.354;2023-07-22T13:37:38;5.63;;;4.68;;
38113;SDS011;23926;53.222;6.354;2023-07-22T13:40:04;7.28;;;4.43;;
38113;SDS011;23926;53.222;6.354;2023-07-22T13:42:35;5.35;;;4.85;;
38113;SDS011;23926;53.222;6.354;2023-07-22T13:45:01;6.60;;;6.00;;
38113;SDS011;23926;53.222;6.354;2023-07-22T13:47:27;6.07;;;5.40;;
38113;SDS011;23926;53.222;6.354;2023-07-22T13:49:52;6.10;;;5.05;;
38113;SDS011;23926;53.222;6.354;2023-07-22T13:52:18;5.72;;;5.22;;
38113;SDS011;23926;53.222;6.354;2023-07-22T13:54:43;6.85;;;5.78;;
38113;SDS011;23926;53.222;6.354;2023-07-22T13:57:08;8.85;;;5.85;;
38113;SDS011;23926;53.222;6.354;2023-07-22T13:59:34;6.18;;;5.22;;
38113;SDS011;23926;53.222;6.354;2023-07-22T14:01:59;7.50;;;5.90;;
38113;SDS011;23926;53.222;6.354;2023-07-22T14:04:25;7.22;;;6.45;;
38113;SDS011;23926;53.222;6.354;2023-07-22T14:06:50;6.25;;;5.65;;
38113;SDS011;23926;53.222;6.354;2023-07-22T14:09:15;5.13;;;4.63;;
38113;SDS011;23926;53.222;6.354;2023-07-22T14:11:41;6.93;;;5.72;;
38113;SDS011;23926;53.222;6.354;2023-07-22T14:14:06;7.90;;;5.15;;
38113;SDS011;23926;53.222;6.354;2023-07-22T14:16:32;6.30;;;5.28;;
38113;SDS011;23926;53.222;6.354;2023-07-22T14:18:58;9.68;;;5.95;;
38113;SDS011;23926;53.222;6.354;2023-07-22T14:21:24;5.93;;;5.32;;
38113;SDS011;23926;53.222;6.354;2023-07-22T14:23:49;11.82;;;3.80;;
38113;SDS011;23926;53.222;6.354;2023-07-22T14:26:14;4.53;;;3.70;;
38113;SDS011;23926;53.222;6.354;2023-07-22T14:28:40;3.63;;;3.33;;
38113;SDS011;23926;53.222;6.354;2023-07-22T14:31:05;3.33;;;3.03;;
38113;SDS011;23926;53.222;6.354;2023-07-22T14:33:31;5.60;;;3.55;;
38113;SDS011;23926;53.222;6.354;2023-07-22T14:35:57;5.90;;;3.22;;
38113;SDS011;23926;53.222;6.354;2023-07-22T14:38:22;10.65;;;4.03;;
38113;SDS011;23926;53.222;6.354;2023-07-22T14:40:48;6.18;;;3.17;;
38113;SDS011;23926;53.222;6.354;2023-07-22T14:43:13;3.67;;;3.28;;
38113;SDS011;23926;53.222;6.354;2023-07-22T14:45:39;4.60;;;3.10;;
38113;SDS011;23926;53.222;6.354;2023-07-22T14:48:04;3.72;;;3.10;;
38113;SDS011;23926;53.222;6.354;2023-07-22T14:50:30;3.88;;;3.20;;
38113;SDS011;23926;53.222;6.354;2023-07-22T14:52:55;6.88;;;3.55;;
38113;SDS011;23926;53.222;6.354;2023-07-22T14:55:21;8.02;;;3.45;;
38113;SDS011;23926;53.222;6.354;2023-07-22T14:57:46;3.35;;;2.97;;
38113;SDS011;23926;53.222;6.354;2023-07-22T15:00:12;7.38;;;3.70;;
38113;SDS011;23926;53.222;6.354;2023-07-22T15:02:38;5.13;;;3.83;;
38113;SDS011;23926;53.222;6.354;2023-07-22T15:05:03;5.90;;;3.38;;